Airfield :







YOU CAN JOIN US ON...

 
LOGIN :

Register | Disclaimer

   EN    FR    IT 

 









Legend :    VFR   Marginal VFR   IFR   Intensive IFR   Very Intensive IFR
Visi :
Ceiling :
>= 8 km
>= 3000ft
5 to 8 km
1000 to 3000 ft
1500m to 5 km
500 to 1000 ft
800 to 1500m
200 to 500 ft
< 800m
< 200 ft
Symbols :   Thunderstorms  Fog  Heavy snow  Heavy precipitations  Wind > 20 kt






- Airport Elevation : 328 ft


KGFL - Floyd Bennett Memorial

CURRENT METAR :
  • 131753Z AUTO VRB04KT 10SM CLR 26/08 A2985 RMK AO2 SLP109 T02560083 10256 20167 58014

EXPIRED METARs :
  • 131653Z AUTO VRB03KT 10SM CLR 24/11 A2987 RMK AO2 SLP114 T02440111
  • 131553Z AUTO VRB03KT 10SM CLR 23/13 A2989 RMK AO2 SLP120 T02330128

TAF KGFL
Valid from the 13 at 18:00 until the 14 at 18:00 UTC


131746Z 1318/1418 16004KT P6SM SCT060
FM140600 19005KT 6SM BR VCSH OVC012
PROB30 1408/1412 2SM +SHRA BR BKN005 OVC012
FM141200 18005KT 4SM -SHRA BR OVC010
KZBW FIR / North America



MET'MAP, your aeronautical weather chart ! - Copyright ORBIFLY December 2007 - Disclaimer

ORBIFLY MET'MAP TEAM :

Programming & Development : Alexandra Zaïnal
Concept & original design : Baudouin d'Aumeries
Assistance for programming : Marc-Olivier Méhu
Technical & hardware support : Manuel Goepfert

Contact : metmap@orbifly.com




SOURCES & CREDITS :

   NOAA